createdAt,value
2022-11-28T00:00:08.362Z,3.00
2022-11-28T00:02:35.600Z,2.85
2022-11-28T00:05:02.764Z,1.52
2022-11-28T00:07:30.097Z,1.50
2022-11-28T00:09:57.365Z,2.13
2022-11-28T00:12:24.539Z,2.17
2022-11-28T00:14:51.671Z,2.28
2022-11-28T00:17:18.741Z,2.50
2022-11-28T00:19:45.812Z,2.30
2022-11-28T00:22:13.177Z,2.35
2022-11-28T00:24:41.093Z,2.00
2022-11-28T00:27:08.397Z,2.00
2022-11-28T00:29:35.552Z,2.10
2022-11-28T00:32:03.479Z,1.35
2022-11-28T00:34:30.615Z,1.30
2022-11-28T00:36:57.797Z,1.30
2022-11-28T00:39:24.891Z,2.60
2022-11-28T00:41:51.956Z,2.30
2022-11-28T00:44:19.191Z,2.33
2022-11-28T00:46:46.247Z,2.20
2022-11-28T00:49:13.360Z,1.90
2022-11-28T00:51:40.569Z,2.50
2022-11-28T00:54:08.209Z,2.30
2022-11-28T00:56:36.884Z,3.20
2022-11-28T00:59:04.516Z,2.42
2022-11-28T01:01:36.647Z,3.08
2022-11-28T01:04:06.506Z,2.22
2022-11-28T01:06:35.290Z,2.63
2022-11-28T01:09:04.690Z,2.80
2022-11-28T01:11:32.435Z,2.20
2022-11-28T01:14:01.172Z,2.15
2022-11-28T01:16:29.118Z,2.35
2022-11-28T01:18:56.758Z,2.50
2022-11-28T01:21:23.867Z,2.30
2022-11-28T01:23:51.100Z,2.50
2022-11-28T01:26:19.744Z,2.40
2022-11-28T01:28:47.015Z,2.53
2022-11-28T01:31:16.146Z,2.70
2022-11-28T01:33:43.602Z,2.63
2022-11-28T01:36:11.248Z,2.55
2022-11-28T01:38:38.410Z,2.80
2022-11-28T01:41:06.151Z,2.83
2022-11-28T01:43:33.286Z,3.08
2022-11-28T01:46:00.563Z,2.83
2022-11-28T01:48:29.941Z,3.20
2022-11-28T01:50:58.972Z,3.40
2022-11-28T01:53:28.746Z,3.42
2022-11-28T01:56:01.560Z,2.58
2022-11-28T01:58:29.153Z,2.85
2022-11-28T02:00:56.470Z,3.50
2022-11-28T02:03:26.875Z,2.80
2022-11-28T02:05:54.322Z,3.20
2022-11-28T02:08:21.384Z,2.90
2022-11-28T02:11:06.676Z,2.70
2022-11-28T02:13:41.932Z,2.75
2022-11-28T02:16:28.007Z,2.65
2022-11-28T02:18:55.145Z,1.92
2022-11-28T02:21:36.688Z,2.47
2022-11-28T02:26:53.854Z,2.60
2022-11-28T02:29:40.134Z,2.50
2022-11-28T02:32:21.972Z,2.35
2022-11-28T02:34:49.214Z,2.35
2022-11-28T02:37:21.801Z,2.45
2022-11-28T02:40:15.430Z,2.58
2022-11-28T02:42:51.465Z,2.70
2022-11-28T02:45:28.347Z,2.90
2022-11-28T02:47:58.469Z,2.80
2022-11-28T02:50:27.690Z,2.88
2022-11-28T02:52:58.536Z,2.53
2022-11-28T02:55:26.102Z,2.35
2022-11-28T02:57:54.396Z,2.92
2022-11-28T03:00:43.665Z,3.17
2022-11-28T03:03:10.870Z,3.10
2022-11-28T03:05:45.070Z,3.20
2022-11-28T03:08:15.261Z,3.88
2022-11-28T03:10:48.218Z,3.95
2022-11-28T03:13:21.145Z,3.67
2022-11-28T03:16:07.506Z,4.55
2022-11-28T03:19:00.812Z,4.90
2022-11-28T03:21:30.738Z,5.57
2022-11-28T03:24:03.711Z,6.75
2022-11-28T03:26:37.064Z,6.63
2022-11-28T03:29:09.821Z,7.95
2022-11-28T03:31:42.096Z,6.82
2022-11-28T03:34:10.869Z,6.15
2022-11-28T03:36:46.434Z,6.38
2022-11-28T03:39:15.382Z,7.07
2022-11-28T03:41:50.236Z,6.70
2022-11-28T03:44:19.436Z,6.75
2022-11-28T03:46:47.740Z,6.47
2022-11-28T03:49:18.983Z,6.85
2022-11-28T03:52:03.702Z,6.47
2022-11-28T03:54:31.105Z,6.15
2022-11-28T03:57:03.285Z,5.50
2022-11-28T03:59:42.784Z,6.55
2022-11-28T04:02:19.792Z,6.25
2022-11-28T04:05:02.508Z,6.68
2022-11-28T04:07:29.608Z,6.05
2022-11-28T04:09:59.984Z,6.00
2022-11-28T04:12:34.663Z,6.40
2022-11-28T04:15:04.654Z,6.10
2022-11-28T04:17:38.153Z,5.90
2022-11-28T04:20:21.548Z,6.28
2022-11-28T04:22:52.249Z,5.50
2022-11-28T04:25:21.073Z,6.10
2022-11-28T04:27:49.895Z,5.88
2022-11-28T04:30:17.263Z,6.25
2022-11-28T04:32:50.707Z,5.78
2022-11-28T04:35:23.664Z,5.95
2022-11-28T04:37:52.237Z,5.78
2022-11-28T04:40:20.171Z,5.47
2022-11-28T04:42:53.260Z,5.15
2022-11-28T04:45:25.217Z,5.00
2022-11-28T04:47:52.385Z,4.65
2022-11-28T04:50:19.614Z,4.78
2022-11-28T04:52:52.748Z,4.60
2022-11-28T04:55:36.042Z,5.03
2022-11-28T04:58:15.386Z,4.70
2022-11-28T05:00:43.159Z,4.85
2022-11-28T05:03:10.588Z,5.03
2022-11-28T05:05:45.760Z,5.13
2022-11-28T05:08:12.835Z,5.00
2022-11-28T05:10:40.225Z,4.78
2022-11-28T05:13:07.455Z,5.57
2022-11-28T05:15:34.613Z,4.95
2022-11-28T05:18:01.676Z,5.75
2022-11-28T05:20:29.266Z,5.45
2022-11-28T05:22:56.408Z,5.15
2022-11-28T05:25:23.514Z,5.35
2022-11-28T05:27:50.687Z,5.85
2022-11-28T05:30:17.959Z,5.18
2022-11-28T05:32:45.031Z,5.32
2022-11-28T05:35:12.189Z,5.50
2022-11-28T05:37:39.475Z,5.63
2022-11-28T05:40:06.922Z,5.78
2022-11-28T05:42:34.818Z,6.30
2022-11-28T05:45:01.890Z,9.73
2022-11-28T05:47:32.452Z,9.85
2022-11-28T05:49:59.618Z,15.52
2022-11-28T05:52:29.505Z,15.98
2022-11-28T05:54:56.670Z,21.40
2022-11-28T05:57:23.919Z,23.17
2022-11-28T05:59:50.984Z,26.85
2022-11-28T06:02:18.131Z,31.92
2022-11-28T06:04:45.374Z,33.92
2022-11-28T06:07:12.531Z,33.75
2022-11-28T06:09:39.608Z,28.85
2022-11-28T06:12:06.978Z,30.40
2022-11-28T06:14:34.115Z,31.58
2022-11-28T06:17:01.385Z,28.48
2022-11-28T06:19:28.574Z,25.42
2022-11-28T06:21:56.460Z,24.92
2022-11-28T06:24:23.588Z,17.90
2022-11-28T06:26:50.914Z,15.57
2022-11-28T06:29:18.020Z,13.20
2022-11-28T06:31:45.307Z,15.30
2022-11-28T06:34:13.099Z,17.17
2022-11-28T06:36:40.307Z,16.88
2022-11-28T06:39:07.453Z,16.83
2022-11-28T06:41:34.585Z,16.17
2022-11-28T06:44:01.662Z,15.75
2022-11-28T06:46:28.769Z,14.70
2022-11-28T06:48:56.048Z,14.20
2022-11-28T06:51:23.136Z,13.70
2022-11-28T06:53:50.673Z,13.30
2022-11-28T06:56:19.185Z,11.80
2022-11-28T06:58:46.966Z,11.70
2022-11-28T07:01:16.174Z,11.27
2022-11-28T07:03:44.216Z,11.50
2022-11-28T07:06:11.759Z,11.30
2022-11-28T07:08:38.952Z,11.13
2022-11-28T07:11:10.727Z,12.82
2022-11-28T07:13:38.223Z,14.75
2022-11-28T07:16:05.423Z,14.57
2022-11-28T07:18:32.968Z,14.10
2022-11-28T07:21:00.157Z,12.50
2022-11-28T07:23:27.540Z,13.05
2022-11-28T07:26:01.180Z,11.50
2022-11-28T07:28:28.958Z,12.00
2022-11-28T07:31:22.414Z,12.10
2022-11-28T07:33:50.543Z,12.90
2022-11-28T07:36:22.222Z,14.23
2022-11-28T07:38:54.177Z,14.20
2022-11-28T07:41:26.202Z,13.38
2022-11-28T07:43:58.380Z,13.25
2022-11-28T07:46:26.583Z,12.00
2022-11-28T07:48:54.063Z,11.63
2022-11-28T07:51:22.569Z,11.23
2022-11-28T07:53:50.067Z,10.93
2022-11-28T07:56:21.307Z,10.55
2022-11-28T08:01:20.221Z,9.65
2022-11-28T08:03:47.719Z,10.57
2022-11-28T08:06:15.444Z,9.88
2022-11-28T08:08:42.620Z,10.45
2022-11-28T08:11:10.304Z,13.18
2022-11-28T08:13:38.709Z,11.13
2022-11-28T08:16:07.089Z,14.82
2022-11-28T08:18:35.072Z,12.95
2022-11-28T08:21:06.484Z,14.35
2022-11-28T08:23:34.825Z,12.65
2022-11-28T08:26:02.540Z,14.18
2022-11-28T08:28:29.851Z,15.85
2022-11-28T08:30:57.221Z,16.80
2022-11-28T08:33:24.644Z,17.50
2022-11-28T08:35:54.804Z,19.15
2022-11-28T08:38:21.961Z,17.40
2022-11-28T08:40:49.036Z,19.17
2022-11-28T08:43:16.101Z,19.23
2022-11-28T08:45:43.375Z,21.00
2022-11-28T08:48:10.520Z,20.90
2022-11-28T08:50:37.570Z,18.73
2022-11-28T08:53:08.101Z,21.33
2022-11-28T08:55:40.529Z,19.65
2022-11-28T08:58:08.976Z,22.13
2022-11-28T09:00:36.062Z,21.95
2022-11-28T09:03:03.159Z,21.30
2022-11-28T09:05:30.845Z,20.65
2022-11-28T09:07:58.533Z,22.15
2022-11-28T09:10:26.177Z,21.00
2022-11-28T09:12:53.360Z,19.98
2022-11-28T09:15:20.424Z,20.38
2022-11-28T09:17:47.511Z,19.83
2022-11-28T09:20:16.698Z,20.88
2022-11-28T09:22:43.838Z,23.60
2022-11-28T09:25:10.958Z,23.10
2022-11-28T09:27:38.185Z,24.15
2022-11-28T09:30:05.942Z,25.75
2022-11-28T09:32:33.073Z,22.50
2022-11-28T09:35:00.304Z,23.02
2022-11-28T09:37:30.144Z,20.42
2022-11-28T09:40:12.731Z,21.40
2022-11-28T09:42:44.172Z,19.25
2022-11-28T09:45:17.026Z,19.55
2022-11-28T09:47:46.736Z,20.02
2022-11-28T09:50:16.717Z,17.45
2022-11-28T09:52:50.560Z,15.38
2022-11-28T09:55:20.509Z,16.00
2022-11-28T09:57:48.638Z,25.48
2022-11-28T10:00:17.687Z,14.95
2022-11-28T10:02:51.036Z,13.77
2022-11-28T10:05:24.377Z,13.13
2022-11-28T10:07:54.908Z,13.13
2022-11-28T10:10:41.467Z,12.48
2022-11-28T10:13:11.526Z,13.05
2022-11-28T10:15:57.208Z,13.77
2022-11-28T10:18:31.705Z,14.35
2022-11-28T10:21:01.415Z,13.38
2022-11-28T10:23:35.732Z,14.35
2022-11-28T10:26:08.090Z,13.23
2022-11-28T10:28:36.909Z,14.23
2022-11-28T10:31:07.678Z,13.85
2022-11-28T10:33:39.907Z,16.63
2022-11-28T10:36:07.445Z,14.50
2022-11-28T10:38:36.312Z,14.75
2022-11-28T10:41:12.461Z,15.85
2022-11-28T10:43:44.143Z,15.48
2022-11-28T10:46:11.281Z,15.15
2022-11-28T10:48:44.996Z,14.52
2022-11-28T10:51:18.014Z,14.63
2022-11-28T10:53:51.047Z,13.75
2022-11-28T10:56:20.869Z,14.20
2022-11-28T10:58:55.143Z,15.50
2022-11-28T11:01:22.340Z,14.88
2022-11-28T11:03:49.496Z,16.95
2022-11-28T11:06:16.640Z,15.02
2022-11-28T11:08:46.166Z,16.15
2022-11-28T11:11:24.736Z,15.25
2022-11-28T11:14:02.484Z,15.68
2022-11-28T11:16:50.036Z,15.68
2022-11-28T11:19:27.226Z,15.43
2022-11-28T11:22:01.720Z,16.35
2022-11-28T11:24:28.985Z,17.27
2022-11-28T11:27:03.448Z,16.55
2022-11-28T11:29:30.842Z,16.73
2022-11-28T11:32:03.540Z,16.15
2022-11-28T11:34:33.400Z,15.90
2022-11-28T11:37:19.785Z,17.10
2022-11-28T11:39:48.052Z,16.30
2022-11-28T11:42:20.655Z,14.80
2022-11-28T11:44:47.748Z,14.73
2022-11-28T11:47:14.905Z,15.73
2022-11-28T11:49:44.063Z,17.20
2022-11-28T11:52:14.464Z,17.40
2022-11-28T11:54:47.864Z,16.63
2022-11-28T11:57:32.553Z,19.95
2022-11-28T12:00:07.167Z,13.18
2022-11-28T12:02:40.672Z,13.48
2022-11-28T12:05:13.200Z,12.35
2022-11-28T12:07:46.333Z,12.95
2022-11-28T12:10:17.219Z,10.63
2022-11-28T12:12:44.519Z,12.35
2022-11-28T12:15:22.201Z,12.32
2022-11-28T12:18:08.418Z,13.52
2022-11-28T12:20:54.242Z,12.57
2022-11-28T12:23:27.669Z,11.63
2022-11-28T12:26:05.345Z,12.30
2022-11-28T12:28:32.494Z,12.00
2022-11-28T12:30:59.677Z,12.88
2022-11-28T12:33:33.733Z,13.35
2022-11-28T12:36:06.220Z,13.63
2022-11-28T12:38:52.214Z,12.68
2022-11-28T12:41:32.178Z,12.75
2022-11-28T12:44:02.677Z,11.83
2022-11-28T12:46:38.798Z,11.88
2022-11-28T12:49:09.079Z,12.07
2022-11-28T12:51:56.431Z,13.27
2022-11-28T12:54:33.510Z,10.88
2022-11-28T12:57:19.459Z,11.10
2022-11-28T13:00:02.094Z,11.68
2022-11-28T13:02:57.906Z,11.00
2022-11-28T13:05:28.477Z,11.85
2022-11-28T13:08:08.273Z,11.57
2022-11-28T13:10:54.045Z,13.38
2022-11-28T13:13:25.233Z,13.20
2022-11-28T13:16:10.934Z,12.20
2022-11-28T13:18:38.140Z,13.68
2022-11-28T13:21:31.325Z,13.70
2022-11-28T13:24:06.938Z,13.25
2022-11-28T13:27:00.528Z,12.82
2022-11-28T13:29:32.329Z,11.27
2022-11-28T13:32:11.978Z,12.60
2022-11-28T13:34:39.377Z,10.73
2022-11-28T13:40:14.117Z,12.18
2022-11-28T13:43:09.589Z,11.75
2022-11-28T13:45:39.270Z,12.23
2022-11-28T13:48:42.942Z,13.00
2022-11-28T13:51:18.352Z,12.65
2022-11-28T13:53:49.645Z,11.98
2022-11-28T13:56:24.642Z,12.18
2022-11-28T13:58:57.246Z,11.45
2022-11-28T14:01:43.676Z,11.10
2022-11-28T14:04:13.116Z,11.93
2022-11-28T14:06:52.194Z,10.90
2022-11-28T14:09:39.806Z,11.07
2022-11-28T14:12:31.541Z,11.15
2022-11-28T14:15:27.277Z,11.20
2022-11-28T14:18:00.427Z,11.45
2022-11-28T14:20:30.408Z,12.18
2022-11-28T14:23:11.542Z,11.45
2022-11-28T14:25:46.278Z,12.30
2022-11-28T14:28:20.459Z,12.23
2022-11-28T14:30:48.452Z,12.32
2022-11-28T14:33:18.543Z,12.40
2022-11-28T14:35:51.655Z,12.50
2022-11-28T14:38:27.739Z,11.90
2022-11-28T14:40:57.695Z,12.23
2022-11-28T14:43:24.798Z,11.02
2022-11-28T14:46:11.984Z,12.15
2022-11-28T14:48:42.102Z,10.50
2022-11-28T14:51:09.692Z,11.93
2022-11-28T14:53:44.757Z,11.65
2022-11-28T14:56:11.907Z,12.48
2022-11-28T14:58:39.437Z,14.57
2022-11-28T15:01:11.036Z,15.95
2022-11-28T15:03:50.292Z,14.43
2022-11-28T15:06:32.766Z,14.07
2022-11-28T15:09:05.345Z,14.00
2022-11-28T15:11:58.525Z,13.15
2022-11-28T15:14:29.385Z,13.68
2022-11-28T15:16:58.299Z,12.40
2022-11-28T15:19:34.136Z,15.25
2022-11-28T15:22:01.452Z,15.32
2022-11-28T15:24:30.623Z,14.32
2022-11-28T15:27:09.888Z,16.27
2022-11-28T15:29:37.417Z,15.27
2022-11-28T15:32:05.211Z,17.60
2022-11-28T15:34:36.379Z,16.73
2022-11-28T15:37:05.421Z,16.33
2022-11-28T15:39:40.484Z,16.42
2022-11-28T15:42:38.460Z,17.73
2022-11-28T15:45:08.745Z,17.80
2022-11-28T15:47:35.883Z,17.80
2022-11-28T15:50:12.347Z,17.48
2022-11-28T15:52:39.537Z,14.90
2022-11-28T15:55:20.095Z,15.10
2022-11-28T15:57:47.185Z,12.05
2022-11-28T16:00:15.211Z,17.17
2022-11-28T16:02:43.021Z,16.15
2022-11-28T16:05:11.735Z,16.90
2022-11-28T16:07:42.818Z,15.00
2022-11-28T16:10:27.259Z,15.38
2022-11-28T16:12:57.975Z,14.52
2022-11-28T16:15:25.357Z,15.00
2022-11-28T16:17:54.883Z,12.65
2022-11-28T16:20:24.113Z,13.27
2022-11-28T16:22:51.229Z,11.57
2022-11-28T16:25:22.622Z,13.85
2022-11-28T16:27:53.189Z,14.32
2022-11-28T16:30:23.529Z,13.70
2022-11-28T16:32:51.426Z,14.63
2022-11-28T16:35:30.893Z,14.25
2022-11-28T16:38:05.121Z,13.48
2022-11-28T16:40:33.600Z,17.25
2022-11-28T16:43:02.983Z,14.13
2022-11-28T16:45:31.648Z,14.52
2022-11-28T16:48:09.163Z,14.13
2022-11-28T16:50:37.150Z,13.30
2022-11-28T16:53:04.440Z,16.52
2022-11-28T16:55:34.911Z,14.95
2022-11-28T16:58:07.260Z,16.33
2022-11-28T17:00:34.801Z,16.10
2022-11-28T17:03:01.972Z,16.50
2022-11-28T17:05:29.067Z,15.93
2022-11-28T17:07:56.397Z,16.33
2022-11-28T17:10:25.490Z,15.82
2022-11-28T17:12:52.611Z,15.57
2022-11-28T17:15:23.656Z,15.40
2022-11-28T17:17:50.834Z,17.05
2022-11-28T17:20:17.980Z,16.88
2022-11-28T17:22:47.074Z,16.55
2022-11-28T17:25:16.057Z,16.83
2022-11-28T17:27:43.353Z,18.08
2022-11-28T17:30:17.278Z,19.75
2022-11-28T17:32:44.385Z,20.92
2022-11-28T17:35:17.891Z,20.63
2022-11-28T17:37:45.252Z,19.48
2022-11-28T17:40:31.024Z,17.33
2022-11-28T17:42:58.121Z,18.83
2022-11-28T17:45:25.476Z,21.75
2022-11-28T17:47:53.003Z,22.85
2022-11-28T17:50:20.094Z,21.85
2022-11-28T17:52:47.186Z,21.40
2022-11-28T17:55:14.483Z,22.45
2022-11-28T17:57:41.603Z,24.05
2022-11-28T18:00:09.908Z,22.83
2022-11-28T18:02:37.087Z,21.73
2022-11-28T18:05:05.221Z,22.40
2022-11-28T18:07:32.363Z,23.90
2022-11-28T18:09:59.552Z,21.48
2022-11-28T18:12:26.632Z,22.75
2022-11-28T18:14:53.779Z,24.02
2022-11-28T18:17:20.934Z,23.60
2022-11-28T18:19:48.011Z,23.80
2022-11-28T18:22:15.137Z,24.95
2022-11-28T18:24:42.372Z,21.00
2022-11-28T18:27:09.454Z,20.95
2022-11-28T18:29:37.108Z,21.05
2022-11-28T18:32:04.564Z,20.77
2022-11-28T18:34:31.655Z,19.45
2022-11-28T18:37:00.777Z,20.67
2022-11-28T18:39:28.075Z,18.83
2022-11-28T18:41:56.344Z,19.58
2022-11-28T18:44:23.404Z,18.52
2022-11-28T18:46:50.560Z,21.63
2022-11-28T18:49:19.121Z,19.95
2022-11-28T18:51:46.326Z,21.63
2022-11-28T18:54:19.240Z,21.13
2022-11-28T18:56:48.108Z,18.90
2022-11-28T18:59:15.356Z,19.90
2022-11-28T19:01:42.445Z,19.48
2022-11-28T19:04:11.009Z,14.52
2022-11-28T19:06:39.123Z,15.40
2022-11-28T19:09:07.792Z,16.35
2022-11-28T19:11:34.989Z,17.83
2022-11-28T19:14:02.520Z,17.83
2022-11-28T19:16:31.115Z,15.57
2022-11-28T19:18:58.547Z,17.08
2022-11-28T19:21:27.052Z,17.25
2022-11-28T19:23:55.602Z,17.13
2022-11-28T19:26:23.965Z,17.08
2022-11-28T19:28:51.392Z,19.48
2022-11-28T19:31:20.522Z,22.13
2022-11-28T19:33:48.608Z,22.15
2022-11-28T19:36:15.908Z,20.60
2022-11-28T19:38:43.042Z,23.30
2022-11-28T19:41:14.277Z,26.40
2022-11-28T19:43:42.158Z,25.67
2022-11-28T19:46:09.877Z,29.83
2022-11-28T19:48:37.717Z,30.58
2022-11-28T19:51:05.445Z,30.52
2022-11-28T19:53:33.357Z,30.80
2022-11-28T19:56:10.095Z,32.65
2022-11-28T19:58:37.912Z,34.17
2022-11-28T20:01:06.250Z,33.75
2022-11-28T20:03:34.869Z,36.15
2022-11-28T20:06:02.080Z,29.98
2022-11-28T20:08:29.401Z,27.73
2022-11-28T20:10:56.531Z,28.38
2022-11-28T20:13:23.703Z,26.20
2022-11-28T20:15:50.764Z,27.25
2022-11-28T20:18:17.978Z,24.88
2022-11-28T20:20:45.108Z,22.50
2022-11-28T20:23:12.545Z,24.98
2022-11-28T20:25:39.714Z,27.48
2022-11-28T20:28:06.797Z,27.17
2022-11-28T20:30:36.472Z,23.33
2022-11-28T20:33:03.672Z,25.92
2022-11-28T20:35:30.810Z,29.13
2022-11-28T20:37:57.857Z,27.92
2022-11-28T20:40:25.026Z,31.77
2022-11-28T20:42:52.259Z,29.85
2022-11-28T20:45:19.328Z,31.42
2022-11-28T20:47:49.778Z,32.33
2022-11-28T20:50:17.246Z,33.20
2022-11-28T20:52:44.320Z,36.80
2022-11-28T20:55:11.663Z,34.75
2022-11-28T20:57:38.761Z,32.60
2022-11-28T21:00:06.309Z,37.38
2022-11-28T21:02:33.775Z,35.75
2022-11-28T21:05:00.961Z,35.10
2022-11-28T21:07:28.123Z,27.67
2022-11-28T21:09:59.846Z,26.90
2022-11-28T21:12:27.071Z,25.98
2022-11-28T21:14:54.728Z,29.13
2022-11-28T21:17:22.132Z,27.70
2022-11-28T21:19:49.251Z,26.15
2022-11-28T21:22:16.320Z,27.92
2022-11-28T21:24:45.029Z,31.35
2022-11-28T21:27:12.324Z,31.88
2022-11-28T21:29:39.554Z,29.40
2022-11-28T21:32:07.960Z,27.50
2022-11-28T21:34:35.106Z,32.83
2022-11-28T21:37:02.253Z,32.83
2022-11-28T21:39:29.485Z,29.80
2022-11-28T21:41:56.568Z,30.63
2022-11-28T21:44:23.632Z,30.48
2022-11-28T21:46:50.827Z,27.60
2022-11-28T21:49:18.257Z,22.95
2022-11-28T21:51:45.358Z,29.42
2022-11-28T21:54:13.283Z,28.08
2022-11-28T21:56:40.532Z,29.40
2022-11-28T21:59:07.732Z,27.08
2022-11-28T22:01:35.014Z,23.45
2022-11-28T22:04:03.100Z,27.77
2022-11-28T22:06:30.409Z,21.85
2022-11-28T22:08:58.469Z,18.77
2022-11-28T22:11:25.750Z,18.67
2022-11-28T22:13:52.970Z,17.83
2022-11-28T22:16:21.817Z,21.95
2022-11-28T22:18:49.178Z,23.23
2022-11-28T22:24:03.972Z,20.65
2022-11-28T22:26:31.072Z,21.35
2022-11-28T22:28:58.899Z,20.60
2022-11-28T22:31:26.315Z,18.67
2022-11-28T22:33:53.564Z,21.33
2022-11-28T22:36:21.088Z,22.80
2022-11-28T22:38:49.105Z,20.52
2022-11-28T22:41:26.348Z,19.88
2022-11-28T22:43:56.578Z,22.33
2022-11-28T22:46:23.826Z,20.58
2022-11-28T22:48:51.824Z,17.45
2022-11-28T22:51:21.976Z,18.55
2022-11-28T22:53:52.653Z,19.33
2022-11-28T22:56:19.736Z,15.60
2022-11-28T22:58:46.936Z,19.63
2022-11-28T23:01:40.585Z,16.40
2022-11-28T23:04:07.795Z,12.13
2022-11-28T23:06:35.402Z,15.15
2022-11-28T23:09:04.469Z,18.55
2022-11-28T23:11:33.277Z,17.17
2022-11-28T23:14:00.889Z,17.73
2022-11-28T23:16:32.452Z,17.70
2022-11-28T23:19:01.052Z,16.00
2022-11-28T23:21:32.640Z,13.25
2022-11-28T23:23:59.726Z,16.70
2022-11-28T23:26:27.880Z,15.15
2022-11-28T23:28:55.627Z,11.50
2022-11-28T23:31:27.704Z,14.63
2022-11-28T23:33:54.950Z,14.70
2022-11-28T23:36:23.355Z,13.70
2022-11-28T23:38:51.774Z,15.73
2022-11-28T23:41:19.004Z,16.83
2022-11-28T23:43:46.365Z,18.23
2022-11-28T23:46:14.596Z,13.55
2022-11-28T23:48:43.684Z,13.25
2022-11-28T23:51:12.935Z,14.45
2022-11-28T23:53:40.174Z,15.25
2022-11-28T23:56:10.334Z,14.88
2022-11-28T23:58:37.770Z,15.88
